sensor_id;sensor_type;location;lat;lon;timestamp;P1;durP1;ratioP1;P2;durP2;ratioP2
16254;SDS011;8235;52.198;9.904;2024-01-07T00:01:39;16.40;;;9.63;;
16254;SDS011;8235;52.198;9.904;2024-01-07T00:04:05;14.37;;;9.20;;
16254;SDS011;8235;52.198;9.904;2024-01-07T00:06:32;14.63;;;9.67;;
16254;SDS011;8235;52.198;9.904;2024-01-07T00:08:58;15.63;;;10.10;;
16254;SDS011;8235;52.198;9.904;2024-01-07T00:11:25;15.57;;;9.60;;
16254;SDS011;8235;52.198;9.904;2024-01-07T00:13:51;16.60;;;10.10;;
16254;SDS011;8235;52.198;9.904;2024-01-07T00:16:18;13.37;;;9.33;;
16254;SDS011;8235;52.198;9.904;2024-01-07T00:18:45;14.03;;;9.27;;
16254;SDS011;8235;52.198;9.904;2024-01-07T00:21:12;14.77;;;9.30;;
16254;SDS011;8235;52.198;9.904;2024-01-07T00:23:38;16.50;;;9.97;;
16254;SDS011;8235;52.198;9.904;2024-01-07T00:26:05;12.43;;;8.27;;
16254;SDS011;8235;52.198;9.904;2024-01-07T00:28:32;14.40;;;9.70;;
16254;SDS011;8235;52.198;9.904;2024-01-07T00:30:58;16.30;;;9.10;;
16254;SDS011;8235;52.198;9.904;2024-01-07T00:33:25;12.20;;;7.03;;
16254;SDS011;8235;52.198;9.904;2024-01-07T00:35:52;15.30;;;9.20;;
16254;SDS011;8235;52.198;9.904;2024-01-07T00:38:19;12.43;;;8.57;;
16254;SDS011;8235;52.198;9.904;2024-01-07T00:40:45;13.97;;;9.00;;
16254;SDS011;8235;52.198;9.904;2024-01-07T00:43:12;15.20;;;8.63;;
16254;SDS011;8235;52.198;9.904;2024-01-07T00:45:38;12.93;;;8.80;;
16254;SDS011;8235;52.198;9.904;2024-01-07T00:48:05;12.00;;;8.77;;
16254;SDS011;8235;52.198;9.904;2024-01-07T00:50:32;13.80;;;8.27;;
16254;SDS011;8235;52.198;9.904;2024-01-07T00:53:00;16.03;;;9.17;;
16254;SDS011;8235;52.198;9.904;2024-01-07T00:55:26;12.50;;;8.43;;
16254;SDS011;8235;52.198;9.904;2024-01-07T00:57:53;11.60;;;7.80;;
16254;SDS011;8235;52.198;9.904;2024-01-07T01:00:19;15.23;;;10.00;;
16254;SDS011;8235;52.198;9.904;2024-01-07T01:02:47;13.77;;;9.43;;
16254;SDS011;8235;52.198;9.904;2024-01-07T01:05:13;16.43;;;9.93;;
16254;SDS011;8235;52.198;9.904;2024-01-07T01:07:42;13.73;;;9.40;;
16254;SDS011;8235;52.198;9.904;2024-01-07T01:10:10;17.20;;;10.47;;
16254;SDS011;8235;52.198;9.904;2024-01-07T01:12:41;16.77;;;10.60;;
16254;SDS011;8235;52.198;9.904;2024-01-07T01:15:08;17.53;;;10.53;;
16254;SDS011;8235;52.198;9.904;2024-01-07T01:17:35;19.03;;;9.47;;
16254;SDS011;8235;52.198;9.904;2024-01-07T01:20:04;16.80;;;10.47;;
16254;SDS011;8235;52.198;9.904;2024-01-07T01:22:31;16.60;;;10.53;;
16254;SDS011;8235;52.198;9.904;2024-01-07T01:25:01;17.13;;;9.87;;
16254;SDS011;8235;52.198;9.904;2024-01-07T01:27:29;12.63;;;8.33;;
16254;SDS011;8235;52.198;9.904;2024-01-07T01:29:59;13.57;;;9.17;;
16254;SDS011;8235;52.198;9.904;2024-01-07T01:32:25;13.53;;;8.73;;
16254;SDS011;8235;52.198;9.904;2024-01-07T01:34:54;16.90;;;9.77;;
16254;SDS011;8235;52.198;9.904;2024-01-07T01:37:21;14.03;;;9.77;;
16254;SDS011;8235;52.198;9.904;2024-01-07T01:39:49;14.90;;;9.73;;
16254;SDS011;8235;52.198;9.904;2024-01-07T01:42:17;19.50;;;10.50;;
16254;SDS011;8235;52.198;9.904;2024-01-07T01:44:45;16.37;;;9.50;;
16254;SDS011;8235;52.198;9.904;2024-01-07T01:47:14;13.77;;;9.80;;
16254;SDS011;8235;52.198;9.904;2024-01-07T01:49:41;12.40;;;9.60;;
16254;SDS011;8235;52.198;9.904;2024-01-07T01:52:10;16.97;;;10.23;;
16254;SDS011;8235;52.198;9.904;2024-01-07T01:54:38;15.50;;;9.43;;
16254;SDS011;8235;52.198;9.904;2024-01-07T01:57:08;15.60;;;9.30;;
16254;SDS011;8235;52.198;9.904;2024-01-07T01:59:39;13.63;;;9.20;;
16254;SDS011;8235;52.198;9.904;2024-01-07T02:02:07;13.37;;;6.70;;
16254;SDS011;8235;52.198;9.904;2024-01-07T02:04:34;14.37;;;8.30;;
16254;SDS011;8235;52.198;9.904;2024-01-07T02:07:01;14.37;;;9.67;;
16254;SDS011;8235;52.198;9.904;2024-01-07T02:09:27;12.90;;;8.47;;
16254;SDS011;8235;52.198;9.904;2024-01-07T02:12:00;13.83;;;9.47;;
16254;SDS011;8235;52.198;9.904;2024-01-07T02:14:27;11.63;;;7.77;;
16254;SDS011;8235;52.198;9.904;2024-01-07T02:16:53;13.10;;;8.73;;
16254;SDS011;8235;52.198;9.904;2024-01-07T02:19:21;12.30;;;8.23;;
16254;SDS011;8235;52.198;9.904;2024-01-07T02:21:49;12.77;;;7.93;;
16254;SDS011;8235;52.198;9.904;2024-01-07T02:24:18;13.33;;;7.40;;
16254;SDS011;8235;52.198;9.904;2024-01-07T02:26:44;13.77;;;7.50;;
16254;SDS011;8235;52.198;9.904;2024-01-07T02:29:11;11.57;;;8.33;;
16254;SDS011;8235;52.198;9.904;2024-01-07T02:31:37;10.80;;;6.53;;
16254;SDS011;8235;52.198;9.904;2024-01-07T02:34:04;11.37;;;6.60;;
16254;SDS011;8235;52.198;9.904;2024-01-07T02:36:30;10.30;;;6.37;;
16254;SDS011;8235;52.198;9.904;2024-01-07T02:38:57;9.00;;;6.20;;
16254;SDS011;8235;52.198;9.904;2024-01-07T02:41:24;12.07;;;6.20;;
16254;SDS011;8235;52.198;9.904;2024-01-07T02:43:51;9.03;;;6.17;;
16254;SDS011;8235;52.198;9.904;2024-01-07T02:46:19;13.37;;;6.80;;
16254;SDS011;8235;52.198;9.904;2024-01-07T02:48:46;8.43;;;5.90;;
16254;SDS011;8235;52.198;9.904;2024-01-07T02:51:12;7.77;;;5.83;;
16254;SDS011;8235;52.198;9.904;2024-01-07T02:53:38;9.20;;;5.07;;
16254;SDS011;8235;52.198;9.904;2024-01-07T02:56:05;7.03;;;5.13;;
16254;SDS011;8235;52.198;9.904;2024-01-07T02:58:35;10.37;;;6.63;;
16254;SDS011;8235;52.198;9.904;2024-01-07T03:01:01;8.10;;;6.00;;
16254;SDS011;8235;52.198;9.904;2024-01-07T03:03:28;10.60;;;6.97;;
16254;SDS011;8235;52.198;9.904;2024-01-07T03:05:54;10.30;;;6.23;;
16254;SDS011;8235;52.198;9.904;2024-01-07T03:08:21;10.07;;;6.67;;
16254;SDS011;8235;52.198;9.904;2024-01-07T03:10:47;11.70;;;6.60;;
16254;SDS011;8235;52.198;9.904;2024-01-07T03:13:14;9.57;;;6.00;;
16254;SDS011;8235;52.198;9.904;2024-01-07T03:15:42;9.00;;;6.77;;
16254;SDS011;8235;52.198;9.904;2024-01-07T03:18:08;11.10;;;6.07;;
16254;SDS011;8235;52.198;9.904;2024-01-07T03:20:35;8.20;;;5.90;;
16254;SDS011;8235;52.198;9.904;2024-01-07T03:23:01;8.63;;;5.50;;
16254;SDS011;8235;52.198;9.904;2024-01-07T03:25:28;9.90;;;5.63;;
16254;SDS011;8235;52.198;9.904;2024-01-07T03:27:54;12.73;;;6.23;;
16254;SDS011;8235;52.198;9.904;2024-01-07T03:30:21;6.47;;;4.80;;
16254;SDS011;8235;52.198;9.904;2024-01-07T03:32:48;9.80;;;6.50;;
16254;SDS011;8235;52.198;9.904;2024-01-07T03:35:15;10.77;;;6.90;;
16254;SDS011;8235;52.198;9.904;2024-01-07T03:37:41;9.00;;;6.93;;
16254;SDS011;8235;52.198;9.904;2024-01-07T03:40:09;11.23;;;7.10;;
16254;SDS011;8235;52.198;9.904;2024-01-07T03:42:37;8.60;;;6.23;;
16254;SDS011;8235;52.198;9.904;2024-01-07T03:45:04;9.53;;;6.60;;
16254;SDS011;8235;52.198;9.904;2024-01-07T03:47:31;8.70;;;5.83;;
16254;SDS011;8235;52.198;9.904;2024-01-07T03:49:58;8.90;;;5.63;;
16254;SDS011;8235;52.198;9.904;2024-01-07T03:52:25;8.60;;;6.23;;
16254;SDS011;8235;52.198;9.904;2024-01-07T03:54:53;10.23;;;6.13;;
16254;SDS011;8235;52.198;9.904;2024-01-07T03:57:20;7.93;;;5.27;;
16254;SDS011;8235;52.198;9.904;2024-01-07T03:59:46;8.43;;;4.13;;
16254;SDS011;8235;52.198;9.904;2024-01-07T04:02:13;6.10;;;4.30;;
16254;SDS011;8235;52.198;9.904;2024-01-07T04:04:41;6.00;;;3.90;;
16254;SDS011;8235;52.198;9.904;2024-01-07T04:07:09;7.93;;;4.40;;
16254;SDS011;8235;52.198;9.904;2024-01-07T04:09:36;6.00;;;4.63;;
16254;SDS011;8235;52.198;9.904;2024-01-07T04:12:02;6.20;;;4.17;;
16254;SDS011;8235;52.198;9.904;2024-01-07T04:14:29;5.53;;;3.97;;
16254;SDS011;8235;52.198;9.904;2024-01-07T04:16:58;7.13;;;4.50;;
16254;SDS011;8235;52.198;9.904;2024-01-07T04:19:25;8.33;;;3.73;;
16254;SDS011;8235;52.198;9.904;2024-01-07T04:21:51;6.90;;;3.77;;
16254;SDS011;8235;52.198;9.904;2024-01-07T04:24:19;7.67;;;4.47;;
16254;SDS011;8235;52.198;9.904;2024-01-07T04:26:45;6.07;;;3.83;;
16254;SDS011;8235;52.198;9.904;2024-01-07T04:29:12;7.87;;;4.10;;
16254;SDS011;8235;52.198;9.904;2024-01-07T04:31:38;5.47;;;3.57;;
16254;SDS011;8235;52.198;9.904;2024-01-07T04:34:05;6.83;;;3.90;;
16254;SDS011;8235;52.198;9.904;2024-01-07T04:36:31;4.83;;;2.93;;
16254;SDS011;8235;52.198;9.904;2024-01-07T04:38:58;4.73;;;3.10;;
16254;SDS011;8235;52.198;9.904;2024-01-07T04:41:25;3.50;;;2.50;;
16254;SDS011;8235;52.198;9.904;2024-01-07T04:43:52;3.50;;;2.13;;
16254;SDS011;8235;52.198;9.904;2024-01-07T04:46:18;4.57;;;2.97;;
16254;SDS011;8235;52.198;9.904;2024-01-07T04:48:45;5.30;;;2.87;;
16254;SDS011;8235;52.198;9.904;2024-01-07T04:51:11;5.00;;;3.00;;
16254;SDS011;8235;52.198;9.904;2024-01-07T04:53:38;3.10;;;2.57;;
16254;SDS011;8235;52.198;9.904;2024-01-07T04:56:04;4.83;;;2.47;;
16254;SDS011;8235;52.198;9.904;2024-01-07T04:58:32;4.47;;;2.63;;
16254;SDS011;8235;52.198;9.904;2024-01-07T05:00:59;2.43;;;2.23;;
16254;SDS011;8235;52.198;9.904;2024-01-07T05:03:25;4.03;;;2.17;;
16254;SDS011;8235;52.198;9.904;2024-01-07T05:05:52;4.30;;;2.50;;
16254;SDS011;8235;52.198;9.904;2024-01-07T05:08:18;4.40;;;2.27;;
16254;SDS011;8235;52.198;9.904;2024-01-07T05:10:45;4.43;;;2.50;;
16254;SDS011;8235;52.198;9.904;2024-01-07T05:13:11;5.80;;;2.47;;
16254;SDS011;8235;52.198;9.904;2024-01-07T05:15:39;4.40;;;2.57;;
16254;SDS011;8235;52.198;9.904;2024-01-07T05:18:07;3.53;;;2.20;;
16254;SDS011;8235;52.198;9.904;2024-01-07T05:20:33;3.73;;;2.57;;
16254;SDS011;8235;52.198;9.904;2024-01-07T05:23:00;3.77;;;2.20;;
16254;SDS011;8235;52.198;9.904;2024-01-07T05:25:26;3.90;;;2.30;;
16254;SDS011;8235;52.198;9.904;2024-01-07T05:27:53;3.13;;;2.13;;
16254;SDS011;8235;52.198;9.904;2024-01-07T05:30:20;4.10;;;2.20;;
16254;SDS011;8235;52.198;9.904;2024-01-07T05:32:48;3.50;;;2.10;;
16254;SDS011;8235;52.198;9.904;2024-01-07T05:35:15;3.67;;;2.00;;
16254;SDS011;8235;52.198;9.904;2024-01-07T05:37:41;4.43;;;2.10;;
16254;SDS011;8235;52.198;9.904;2024-01-07T05:40:08;3.63;;;1.87;;
16254;SDS011;8235;52.198;9.904;2024-01-07T05:42:35;2.73;;;1.87;;
16254;SDS011;8235;52.198;9.904;2024-01-07T05:45:02;3.37;;;2.40;;
16254;SDS011;8235;52.198;9.904;2024-01-07T05:47:28;3.27;;;2.07;;
16254;SDS011;8235;52.198;9.904;2024-01-07T05:49:56;4.27;;;2.53;;
16254;SDS011;8235;52.198;9.904;2024-01-07T05:52:23;2.57;;;1.70;;
16254;SDS011;8235;52.198;9.904;2024-01-07T05:54:49;4.13;;;2.03;;
16254;SDS011;8235;52.198;9.904;2024-01-07T05:57:16;5.00;;;2.37;;
16254;SDS011;8235;52.198;9.904;2024-01-07T05:59:43;4.60;;;2.57;;
16254;SDS011;8235;52.198;9.904;2024-01-07T06:02:10;2.33;;;1.50;;
16254;SDS011;8235;52.198;9.904;2024-01-07T06:04:37;4.13;;;2.67;;
16254;SDS011;8235;52.198;9.904;2024-01-07T06:07:05;2.60;;;1.67;;
16254;SDS011;8235;52.198;9.904;2024-01-07T06:09:32;2.83;;;1.97;;
16254;SDS011;8235;52.198;9.904;2024-01-07T06:11:59;3.03;;;1.87;;
16254;SDS011;8235;52.198;9.904;2024-01-07T06:14:25;4.20;;;2.20;;
16254;SDS011;8235;52.198;9.904;2024-01-07T06:16:52;2.77;;;2.00;;
16254;SDS011;8235;52.198;9.904;2024-01-07T06:19:18;4.47;;;2.60;;
16254;SDS011;8235;52.198;9.904;2024-01-07T06:21:45;5.00;;;2.73;;
16254;SDS011;8235;52.198;9.904;2024-01-07T06:24:13;2.80;;;2.13;;
16254;SDS011;8235;52.198;9.904;2024-01-07T06:26:40;3.80;;;2.10;;
16254;SDS011;8235;52.198;9.904;2024-01-07T06:29:07;5.10;;;2.17;;
16254;SDS011;8235;52.198;9.904;2024-01-07T06:31:34;3.10;;;2.20;;
16254;SDS011;8235;52.198;9.904;2024-01-07T06:34:01;2.97;;;1.70;;
16254;SDS011;8235;52.198;9.904;2024-01-07T06:36:27;4.67;;;2.50;;
16254;SDS011;8235;52.198;9.904;2024-01-07T06:38:54;4.23;;;2.60;;
16254;SDS011;8235;52.198;9.904;2024-01-07T06:41:21;3.47;;;2.33;;
16254;SDS011;8235;52.198;9.904;2024-01-07T06:43:48;3.63;;;2.30;;
16254;SDS011;8235;52.198;9.904;2024-01-07T06:46:15;4.43;;;2.43;;
16254;SDS011;8235;52.198;9.904;2024-01-07T06:48:41;3.20;;;2.63;;
16254;SDS011;8235;52.198;9.904;2024-01-07T06:51:07;4.13;;;2.77;;
16254;SDS011;8235;52.198;9.904;2024-01-07T06:53:34;4.17;;;2.90;;
16254;SDS011;8235;52.198;9.904;2024-01-07T06:56:00;4.13;;;2.73;;
16254;SDS011;8235;52.198;9.904;2024-01-07T06:58:28;2.67;;;2.40;;
16254;SDS011;8235;52.198;9.904;2024-01-07T07:00:55;7.43;;;3.17;;
16254;SDS011;8235;52.198;9.904;2024-01-07T07:03:22;3.10;;;2.57;;
16254;SDS011;8235;52.198;9.904;2024-01-07T07:05:48;3.40;;;2.30;;
16254;SDS011;8235;52.198;9.904;2024-01-07T07:08:15;4.57;;;2.53;;
16254;SDS011;8235;52.198;9.904;2024-01-07T07:10:41;5.13;;;2.50;;
16254;SDS011;8235;52.198;9.904;2024-01-07T07:13:08;3.63;;;2.50;;
16254;SDS011;8235;52.198;9.904;2024-01-07T07:15:36;3.67;;;2.33;;
16254;SDS011;8235;52.198;9.904;2024-01-07T07:18:02;3.77;;;2.53;;
16254;SDS011;8235;52.198;9.904;2024-01-07T07:20:29;2.97;;;2.67;;
16254;SDS011;8235;52.198;9.904;2024-01-07T07:22:56;4.13;;;2.80;;
16254;SDS011;8235;52.198;9.904;2024-01-07T07:25:22;2.80;;;2.13;;
16254;SDS011;8235;52.198;9.904;2024-01-07T07:27:48;3.07;;;2.20;;
16254;SDS011;8235;52.198;9.904;2024-01-07T07:30:15;4.17;;;2.40;;
16254;SDS011;8235;52.198;9.904;2024-01-07T07:32:43;4.20;;;2.20;;
16254;SDS011;8235;52.198;9.904;2024-01-07T07:35:10;3.70;;;2.40;;
16254;SDS011;8235;52.198;9.904;2024-01-07T07:37:37;2.83;;;1.93;;
16254;SDS011;8235;52.198;9.904;2024-01-07T07:40:04;3.20;;;2.43;;
16254;SDS011;8235;52.198;9.904;2024-01-07T07:42:31;4.30;;;2.60;;
16254;SDS011;8235;52.198;9.904;2024-01-07T07:44:57;3.07;;;2.00;;
16254;SDS011;8235;52.198;9.904;2024-01-07T07:47:24;3.00;;;2.50;;
16254;SDS011;8235;52.198;9.904;2024-01-07T07:49:51;2.83;;;2.40;;
16254;SDS011;8235;52.198;9.904;2024-01-07T07:52:18;4.80;;;2.40;;
16254;SDS011;8235;52.198;9.904;2024-01-07T07:54:47;6.70;;;3.13;;
16254;SDS011;8235;52.198;9.904;2024-01-07T07:57:13;2.87;;;2.03;;
16254;SDS011;8235;52.198;9.904;2024-01-07T07:59:40;3.20;;;2.23;;
16254;SDS011;8235;52.198;9.904;2024-01-07T08:02:06;4.70;;;2.20;;
16254;SDS011;8235;52.198;9.904;2024-01-07T08:04:33;4.27;;;3.10;;
16254;SDS011;8235;52.198;9.904;2024-01-07T08:07:01;5.93;;;2.63;;
16254;SDS011;8235;52.198;9.904;2024-01-07T08:09:28;4.07;;;2.83;;
16254;SDS011;8235;52.198;9.904;2024-01-07T08:11:54;4.80;;;2.63;;
16254;SDS011;8235;52.198;9.904;2024-01-07T08:14:21;4.87;;;3.27;;
16254;SDS011;8235;52.198;9.904;2024-01-07T08:16:47;3.80;;;2.90;;
16254;SDS011;8235;52.198;9.904;2024-01-07T08:19:14;5.80;;;3.50;;
16254;SDS011;8235;52.198;9.904;2024-01-07T08:21:40;4.00;;;3.10;;
16254;SDS011;8235;52.198;9.904;2024-01-07T08:24:08;3.97;;;3.20;;
16254;SDS011;8235;52.198;9.904;2024-01-07T08:26:35;4.50;;;3.13;;
16254;SDS011;8235;52.198;9.904;2024-01-07T08:29:02;4.33;;;2.80;;
16254;SDS011;8235;52.198;9.904;2024-01-07T08:31:28;4.17;;;3.30;;
16254;SDS011;8235;52.198;9.904;2024-01-07T08:33:55;4.70;;;3.10;;
16254;SDS011;8235;52.198;9.904;2024-01-07T08:36:21;4.77;;;3.10;;
16254;SDS011;8235;52.198;9.904;2024-01-07T08:38:48;5.07;;;2.80;;
16254;SDS011;8235;52.198;9.904;2024-01-07T08:41:17;4.87;;;3.33;;
16254;SDS011;8235;52.198;9.904;2024-01-07T08:43:44;4.00;;;3.10;;
16254;SDS011;8235;52.198;9.904;2024-01-07T08:46:11;5.63;;;3.30;;
16254;SDS011;8235;52.198;9.904;2024-01-07T08:48:39;6.13;;;3.60;;
16254;SDS011;8235;52.198;9.904;2024-01-07T08:51:05;4.70;;;2.67;;
16254;SDS011;8235;52.198;9.904;2024-01-07T08:53:32;3.97;;;2.83;;
16254;SDS011;8235;52.198;9.904;2024-01-07T08:55:58;4.43;;;3.07;;
16254;SDS011;8235;52.198;9.904;2024-01-07T08:58:26;4.40;;;3.50;;
16254;SDS011;8235;52.198;9.904;2024-01-07T09:00:52;6.33;;;3.43;;
16254;SDS011;8235;52.198;9.904;2024-01-07T09:03:19;6.67;;;3.67;;
16254;SDS011;8235;52.198;9.904;2024-01-07T09:05:45;4.37;;;3.43;;
16254;SDS011;8235;52.198;9.904;2024-01-07T09:08:12;4.57;;;3.10;;
16254;SDS011;8235;52.198;9.904;2024-01-07T09:10:39;3.80;;;2.90;;
16254;SDS011;8235;52.198;9.904;2024-01-07T09:13:06;5.87;;;3.30;;
16254;SDS011;8235;52.198;9.904;2024-01-07T09:15:33;3.60;;;2.70;;
16254;SDS011;8235;52.198;9.904;2024-01-07T09:18:00;5.07;;;3.13;;
16254;SDS011;8235;52.198;9.904;2024-01-07T09:20:27;5.00;;;2.27;;
16254;SDS011;8235;52.198;9.904;2024-01-07T09:22:53;4.17;;;2.47;;
16254;SDS011;8235;52.198;9.904;2024-01-07T09:25:20;4.23;;;2.93;;
16254;SDS011;8235;52.198;9.904;2024-01-07T09:27:46;4.83;;;2.10;;
16254;SDS011;8235;52.198;9.904;2024-01-07T09:30:13;4.10;;;2.53;;
16254;SDS011;8235;52.198;9.904;2024-01-07T09:32:41;3.43;;;2.50;;
16254;SDS011;8235;52.198;9.904;2024-01-07T09:35:08;5.07;;;2.60;;
16254;SDS011;8235;52.198;9.904;2024-01-07T09:37:34;4.70;;;2.97;;
16254;SDS011;8235;52.198;9.904;2024-01-07T09:40:01;6.03;;;2.70;;
16254;SDS011;8235;52.198;9.904;2024-01-07T09:42:29;4.83;;;2.30;;
16254;SDS011;8235;52.198;9.904;2024-01-07T09:44:56;3.67;;;2.57;;
16254;SDS011;8235;52.198;9.904;2024-01-07T09:47:22;5.77;;;3.20;;
16254;SDS011;8235;52.198;9.904;2024-01-07T09:49:50;3.00;;;2.40;;
16254;SDS011;8235;52.198;9.904;2024-01-07T09:52:17;5.97;;;3.03;;
16254;SDS011;8235;52.198;9.904;2024-01-07T09:54:45;4.00;;;2.60;;
16254;SDS011;8235;52.198;9.904;2024-01-07T09:57:18;4.00;;;2.80;;
16254;SDS011;8235;52.198;9.904;2024-01-07T09:59:45;5.20;;;3.10;;
16254;SDS011;8235;52.198;9.904;2024-01-07T10:02:12;5.90;;;2.27;;
16254;SDS011;8235;52.198;9.904;2024-01-07T10:04:41;4.80;;;2.97;;
16254;SDS011;8235;52.198;9.904;2024-01-07T10:07:09;3.30;;;2.33;;
16254;SDS011;8235;52.198;9.904;2024-01-07T10:09:35;1.97;;;1.83;;
16254;SDS011;8235;52.198;9.904;2024-01-07T10:12:02;3.00;;;2.30;;
16254;SDS011;8235;52.198;9.904;2024-01-07T10:14:29;1.50;;;1.33;;
16254;SDS011;8235;52.198;9.904;2024-01-07T10:16:55;3.53;;;2.57;;
16254;SDS011;8235;52.198;9.904;2024-01-07T10:19:23;3.13;;;2.40;;
16254;SDS011;8235;52.198;9.904;2024-01-07T10:22:00;3.67;;;2.27;;
16254;SDS011;8235;52.198;9.904;2024-01-07T10:24:32;3.17;;;2.10;;
16254;SDS011;8235;52.198;9.904;2024-01-07T10:27:03;4.80;;;2.33;;
16254;SDS011;8235;52.198;9.904;2024-01-07T10:29:29;3.53;;;3.00;;
16254;SDS011;8235;52.198;9.904;2024-01-07T10:31:56;2.90;;;2.00;;
16254;SDS011;8235;52.198;9.904;2024-01-07T10:34:23;2.80;;;2.17;;
16254;SDS011;8235;52.198;9.904;2024-01-07T10:36:50;3.77;;;2.50;;
16254;SDS011;8235;52.198;9.904;2024-01-07T10:39:19;4.10;;;2.43;;
16254;SDS011;8235;52.198;9.904;2024-01-07T10:41:47;3.67;;;2.57;;
16254;SDS011;8235;52.198;9.904;2024-01-07T10:44:13;3.77;;;2.13;;
16254;SDS011;8235;52.198;9.904;2024-01-07T10:46:40;3.20;;;2.30;;
16254;SDS011;8235;52.198;9.904;2024-01-07T10:49:10;3.10;;;2.10;;
16254;SDS011;8235;52.198;9.904;2024-01-07T10:51:45;2.97;;;2.17;;
16254;SDS011;8235;52.198;9.904;2024-01-07T10:54:14;3.10;;;2.30;;
16254;SDS011;8235;52.198;9.904;2024-01-07T10:56:45;3.47;;;1.93;;
16254;SDS011;8235;52.198;9.904;2024-01-07T10:59:15;3.60;;;2.53;;
16254;SDS011;8235;52.198;9.904;2024-01-07T11:01:42;3.27;;;2.20;;
16254;SDS011;8235;52.198;9.904;2024-01-07T11:04:10;3.97;;;1.73;;
16254;SDS011;8235;52.198;9.904;2024-01-07T11:06:43;4.47;;;2.47;;
16254;SDS011;8235;52.198;9.904;2024-01-07T11:09:19;3.37;;;2.43;;
16254;SDS011;8235;52.198;9.904;2024-01-07T11:11:51;3.60;;;2.13;;
16254;SDS011;8235;52.198;9.904;2024-01-07T11:14:39;4.17;;;2.50;;
16254;SDS011;8235;52.198;9.904;2024-01-07T11:17:13;3.73;;;2.00;;
16254;SDS011;8235;52.198;9.904;2024-01-07T11:20:02;3.80;;;2.20;;
16254;SDS011;8235;52.198;9.904;2024-01-07T11:22:28;2.50;;;1.80;;
16254;SDS011;8235;52.198;9.904;2024-01-07T11:24:55;7.93;;;2.83;;
16254;SDS011;8235;52.198;9.904;2024-01-07T11:27:24;3.53;;;2.37;;
16254;SDS011;8235;52.198;9.904;2024-01-07T11:29:54;4.03;;;2.23;;
16254;SDS011;8235;52.198;9.904;2024-01-07T11:32:22;2.57;;;2.07;;
16254;SDS011;8235;52.198;9.904;2024-01-07T11:34:50;4.40;;;2.47;;
16254;SDS011;8235;52.198;9.904;2024-01-07T11:37:19;4.87;;;1.80;;
16254;SDS011;8235;52.198;9.904;2024-01-07T11:39:45;4.83;;;2.47;;
16254;SDS011;8235;52.198;9.904;2024-01-07T11:42:12;3.53;;;2.23;;
16254;SDS011;8235;52.198;9.904;2024-01-07T11:44:46;4.30;;;2.20;;
16254;SDS011;8235;52.198;9.904;2024-01-07T11:47:14;1.73;;;1.60;;
16254;SDS011;8235;52.198;9.904;2024-01-07T11:49:40;2.87;;;2.10;;
16254;SDS011;8235;52.198;9.904;2024-01-07T11:52:08;4.00;;;2.30;;
16254;SDS011;8235;52.198;9.904;2024-01-07T11:54:35;2.90;;;2.07;;
16254;SDS011;8235;52.198;9.904;2024-01-07T11:57:02;6.67;;;2.50;;
16254;SDS011;8235;52.198;9.904;2024-01-07T11:59:29;3.37;;;2.17;;
16254;SDS011;8235;52.198;9.904;2024-01-07T12:01:57;3.90;;;2.40;;
16254;SDS011;8235;52.198;9.904;2024-01-07T12:04:23;3.57;;;2.17;;
16254;SDS011;8235;52.198;9.904;2024-01-07T12:06:50;4.30;;;2.47;;
16254;SDS011;8235;52.198;9.904;2024-01-07T12:09:16;5.17;;;1.77;;
16254;SDS011;8235;52.198;9.904;2024-01-07T12:11:43;4.80;;;2.43;;
16254;SDS011;8235;52.198;9.904;2024-01-07T12:14:10;3.30;;;2.33;;
16254;SDS011;8235;52.198;9.904;2024-01-07T12:16:38;2.63;;;1.73;;
16254;SDS011;8235;52.198;9.904;2024-01-07T12:19:07;4.13;;;2.33;;
16254;SDS011;8235;52.198;9.904;2024-01-07T12:21:34;3.60;;;2.63;;
16254;SDS011;8235;52.198;9.904;2024-01-07T12:24:00;6.63;;;3.30;;
16254;SDS011;8235;52.198;9.904;2024-01-07T12:26:27;6.33;;;3.67;;
16254;SDS011;8235;52.198;9.904;2024-01-07T12:28:57;3.90;;;2.53;;
16254;SDS011;8235;52.198;9.904;2024-01-07T12:31:25;3.17;;;2.10;;
16254;SDS011;8235;52.198;9.904;2024-01-07T12:33:52;3.07;;;2.03;;
16254;SDS011;8235;52.198;9.904;2024-01-07T12:36:21;3.17;;;1.93;;
16254;SDS011;8235;52.198;9.904;2024-01-07T12:38:48;5.50;;;2.87;;
16254;SDS011;8235;52.198;9.904;2024-01-07T12:41:14;3.77;;;2.30;;
16254;SDS011;8235;52.198;9.904;2024-01-07T12:43:41;3.17;;;2.13;;
16254;SDS011;8235;52.198;9.904;2024-01-07T12:46:07;4.03;;;2.63;;
16254;SDS011;8235;52.198;9.904;2024-01-07T12:48:34;2.67;;;1.50;;
16254;SDS011;8235;52.198;9.904;2024-01-07T12:51:00;3.27;;;2.30;;
16254;SDS011;8235;52.198;9.904;2024-01-07T12:53:29;3.00;;;1.97;;
16254;SDS011;8235;52.198;9.904;2024-01-07T12:55:55;3.70;;;2.40;;
16254;SDS011;8235;52.198;9.904;2024-01-07T12:58:21;2.67;;;1.63;;
16254;SDS011;8235;52.198;9.904;2024-01-07T13:00:48;3.73;;;2.27;;
16254;SDS011;8235;52.198;9.904;2024-01-07T13:03:15;3.10;;;2.77;;
16254;SDS011;8235;52.198;9.904;2024-01-07T13:05:43;2.60;;;1.93;;
16254;SDS011;8235;52.198;9.904;2024-01-07T13:08:11;4.40;;;2.40;;
16254;SDS011;8235;52.198;9.904;2024-01-07T13:10:39;3.87;;;2.80;;
16254;SDS011;8235;52.198;9.904;2024-01-07T13:13:05;5.33;;;3.03;;
16254;SDS011;8235;52.198;9.904;2024-01-07T13:15:34;4.10;;;3.17;;
16254;SDS011;8235;52.198;9.904;2024-01-07T13:18:00;4.30;;;2.80;;
16254;SDS011;8235;52.198;9.904;2024-01-07T13:20:27;3.57;;;2.20;;
16254;SDS011;8235;52.198;9.904;2024-01-07T13:22:54;3.40;;;2.50;;
16254;SDS011;8235;52.198;9.904;2024-01-07T13:25:20;4.57;;;2.53;;
16254;SDS011;8235;52.198;9.904;2024-01-07T13:27:48;3.17;;;2.13;;
16254;SDS011;8235;52.198;9.904;2024-01-07T13:30:15;4.23;;;2.33;;
16254;SDS011;8235;52.198;9.904;2024-01-07T13:32:41;3.53;;;2.47;;
16254;SDS011;8235;52.198;9.904;2024-01-07T13:35:08;4.57;;;3.23;;
16254;SDS011;8235;52.198;9.904;2024-01-07T13:37:35;4.33;;;2.53;;
16254;SDS011;8235;52.198;9.904;2024-01-07T13:40:02;3.37;;;1.90;;
16254;SDS011;8235;52.198;9.904;2024-01-07T13:42:29;2.73;;;1.83;;
16254;SDS011;8235;52.198;9.904;2024-01-07T13:44:57;2.90;;;2.40;;
16254;SDS011;8235;52.198;9.904;2024-01-07T13:47:23;5.13;;;2.87;;
16254;SDS011;8235;52.198;9.904;2024-01-07T13:49:50;3.57;;;2.83;;
16254;SDS011;8235;52.198;9.904;2024-01-07T13:52:16;4.87;;;2.97;;
16254;SDS011;8235;52.198;9.904;2024-01-07T13:54:43;4.17;;;2.47;;
16254;SDS011;8235;52.198;9.904;2024-01-07T13:57:09;4.37;;;2.37;;
16254;SDS011;8235;52.198;9.904;2024-01-07T13:59:38;5.20;;;2.80;;
16254;SDS011;8235;52.198;9.904;2024-01-07T14:02:06;2.97;;;1.97;;
16254;SDS011;8235;52.198;9.904;2024-01-07T14:04:34;4.03;;;2.30;;
16254;SDS011;8235;52.198;9.904;2024-01-07T14:07:01;3.70;;;2.20;;
16254;SDS011;8235;52.198;9.904;2024-01-07T14:09:27;3.90;;;2.50;;
16254;SDS011;8235;52.198;9.904;2024-01-07T14:11:56;4.60;;;3.13;;
16254;SDS011;8235;52.198;9.904;2024-01-07T14:14:22;4.40;;;3.00;;
16254;SDS011;8235;52.198;9.904;2024-01-07T14:16:49;4.43;;;2.57;;
16254;SDS011;8235;52.198;9.904;2024-01-07T14:19:17;4.77;;;2.87;;
16254;SDS011;8235;52.198;9.904;2024-01-07T14:21:43;5.30;;;2.80;;
16254;SDS011;8235;52.198;9.904;2024-01-07T14:24:10;4.73;;;3.30;;
16254;SDS011;8235;52.198;9.904;2024-01-07T14:26:36;4.60;;;2.57;;
16254;SDS011;8235;52.198;9.904;2024-01-07T14:29:03;8.03;;;3.23;;
16254;SDS011;8235;52.198;9.904;2024-01-07T14:31:30;4.57;;;2.67;;
16254;SDS011;8235;52.198;9.904;2024-01-07T14:33:56;6.20;;;4.10;;
16254;SDS011;8235;52.198;9.904;2024-01-07T14:36:24;5.60;;;3.43;;
16254;SDS011;8235;52.198;9.904;2024-01-07T14:38:51;5.43;;;3.70;;
16254;SDS011;8235;52.198;9.904;2024-01-07T14:41:18;6.03;;;3.23;;
16254;SDS011;8235;52.198;9.904;2024-01-07T14:43:44;3.93;;;2.50;;
16254;SDS011;8235;52.198;9.904;2024-01-07T14:46:11;4.43;;;2.77;;
16254;SDS011;8235;52.198;9.904;2024-01-07T14:48:37;5.93;;;2.60;;
16254;SDS011;8235;52.198;9.904;2024-01-07T14:51:04;5.27;;;2.03;;
16254;SDS011;8235;52.198;9.904;2024-01-07T14:53:32;3.57;;;2.57;;
16254;SDS011;8235;52.198;9.904;2024-01-07T14:55:58;6.67;;;2.70;;
16254;SDS011;8235;52.198;9.904;2024-01-07T14:58:25;3.47;;;1.90;;